createdAt,value
2022-12-03T00:01:16.068Z,101058.50
2022-12-03T00:03:43.555Z,101043.09
2022-12-03T00:06:11.075Z,101044.75
2022-12-03T00:08:38.417Z,101046.34
2022-12-03T00:11:05.848Z,101059.91
2022-12-03T00:13:33.253Z,101058.31
2022-12-03T00:16:00.576Z,101052.28
2022-12-03T00:18:27.844Z,101041.97
2022-12-03T00:20:55.160Z,101041.06
2022-12-03T00:23:22.476Z,101032.47
2022-12-03T00:25:49.781Z,101046.16
2022-12-03T00:28:16.974Z,101038.63
2022-12-03T00:30:44.280Z,101046.34
2022-12-03T00:33:11.604Z,101045.63
2022-12-03T00:35:38.852Z,101043.81
2022-12-03T00:38:06.235Z,101041.25
2022-12-03T00:40:33.520Z,101039.53
2022-12-03T00:43:00.723Z,101031.84
2022-12-03T00:45:28.037Z,101027.47
2022-12-03T00:47:55.347Z,101028.94
2022-12-03T00:50:23.094Z,101029.88
2022-12-03T00:52:50.321Z,101027.38
2022-12-03T00:55:17.897Z,101027.50
2022-12-03T00:57:45.284Z,101025.81
2022-12-03T01:00:13.675Z,101022.44
2022-12-03T01:02:41.011Z,101030.19
2022-12-03T01:05:08.881Z,101036.25
2022-12-03T01:07:36.517Z,101034.56
2022-12-03T01:10:05.524Z,101022.56
2022-12-03T01:12:32.746Z,101037.22
2022-12-03T01:15:02.383Z,101027.69
2022-12-03T01:17:30.111Z,101032.03
2022-12-03T01:19:59.060Z,101027.59
2022-12-03T01:22:26.309Z,101031.09
2022-12-03T01:24:53.835Z,101029.47
2022-12-03T01:27:21.305Z,101024.31
2022-12-03T01:29:48.601Z,101030.38
2022-12-03T01:32:21.705Z,101031.19
2022-12-03T01:34:54.881Z,101025.97
2022-12-03T01:37:24.767Z,101022.50
2022-12-03T01:39:52.526Z,101023.41
2022-12-03T01:42:23.483Z,101018.47
2022-12-03T01:44:53.498Z,101019.34
2022-12-03T01:47:24.815Z,101032.09
2022-12-03T01:50:08.572Z,101034.78
2022-12-03T01:52:39.360Z,101029.63
2022-12-03T01:55:13.664Z,101033.06
2022-12-03T01:57:47.622Z,101028.72
2022-12-03T02:00:18.065Z,101029.47
2022-12-03T02:02:48.263Z,101024.38
2022-12-03T02:05:21.687Z,101026.16
2022-12-03T02:07:49.298Z,101027.81
2022-12-03T02:10:20.053Z,101017.22
2022-12-03T02:12:52.207Z,101019.75
2022-12-03T02:15:19.612Z,101025.88
2022-12-03T02:17:47.085Z,101017.28
2022-12-03T02:20:14.999Z,101014.72
2022-12-03T02:22:56.917Z,101004.38
2022-12-03T02:25:31.913Z,101006.94
2022-12-03T02:28:00.707Z,101008.72
2022-12-03T02:30:29.831Z,101007.00
2022-12-03T02:32:57.777Z,101001.03
2022-12-03T02:35:32.961Z,101000.19
2022-12-03T02:38:13.031Z,100998.53
2022-12-03T02:40:42.203Z,100994.28
2022-12-03T02:43:10.566Z,100990.00
2022-12-03T02:45:43.929Z,100997.72
2022-12-03T02:48:24.304Z,100983.13
2022-12-03T02:50:54.803Z,100994.34
2022-12-03T02:53:31.014Z,100985.72
2022-12-03T02:56:00.641Z,100983.13
2022-12-03T02:58:30.833Z,100985.59
2022-12-03T03:00:59.168Z,100989.94
2022-12-03T03:03:29.207Z,100986.47
2022-12-03T03:05:58.954Z,100991.72
2022-12-03T03:08:27.289Z,100991.56
2022-12-03T03:10:56.073Z,100983.00
2022-12-03T03:13:23.334Z,100974.50
2022-12-03T03:15:50.672Z,100981.25
2022-12-03T03:18:18.970Z,100987.19
2022-12-03T03:20:46.294Z,100977.72
2022-12-03T03:23:20.843Z,100982.81
2022-12-03T03:26:01.631Z,100978.50
2022-12-03T03:28:30.607Z,100976.00
2022-12-03T03:31:00.613Z,100974.25
2022-12-03T03:33:28.580Z,100970.84
2022-12-03T03:35:56.162Z,100977.66
2022-12-03T03:38:24.100Z,100973.25
2022-12-03T03:40:52.129Z,100980.13
2022-12-03T03:43:23.873Z,100969.03
2022-12-03T03:45:53.302Z,100979.28
2022-12-03T03:48:21.893Z,100977.59
2022-12-03T03:50:50.927Z,100987.81
2022-12-03T03:53:19.752Z,100984.28
2022-12-03T03:55:47.426Z,100969.72
2022-12-03T03:58:14.860Z,100980.78
2022-12-03T04:00:44.666Z,100977.41
2022-12-03T04:03:12.699Z,100982.66
2022-12-03T04:05:40.216Z,100970.47
2022-12-03T04:08:07.626Z,100970.59
2022-12-03T04:10:53.821Z,100969.66
2022-12-03T04:13:21.029Z,100967.19
2022-12-03T04:15:48.343Z,100965.44
2022-12-03T04:18:34.608Z,100968.88
2022-12-03T04:21:20.576Z,100956.97
2022-12-03T04:23:47.876Z,100965.53
2022-12-03T04:26:33.689Z,100948.28
2022-12-03T04:29:01.091Z,100957.69
2022-12-03T04:31:47.059Z,100958.69
2022-12-03T04:34:33.044Z,100968.13
2022-12-03T04:37:00.368Z,100962.00
2022-12-03T04:39:27.620Z,100966.38
2022-12-03T04:41:55.051Z,100965.44
2022-12-03T04:44:37.516Z,100961.84
2022-12-03T04:47:18.147Z,100958.38
2022-12-03T04:49:47.732Z,100955.03
2022-12-03T04:52:17.118Z,100945.63
2022-12-03T04:54:44.780Z,100955.09
2022-12-03T04:57:12.445Z,100958.53
2022-12-03T04:59:40.276Z,100950.00
2022-12-03T05:02:07.922Z,100950.78
2022-12-03T05:04:35.645Z,100950.63
2022-12-03T05:07:03.276Z,100954.81
2022-12-03T05:09:30.713Z,100949.59
2022-12-03T05:11:58.168Z,100947.63
2022-12-03T05:14:25.427Z,100949.38
2022-12-03T05:16:52.830Z,100948.47
2022-12-03T05:19:20.063Z,100947.41
2022-12-03T05:21:47.313Z,100949.31
2022-12-03T05:24:15.007Z,100935.50
2022-12-03T05:26:42.247Z,100946.84
2022-12-03T05:29:09.519Z,100945.97
2022-12-03T05:31:36.888Z,100942.50
2022-12-03T05:34:04.652Z,100946.69
2022-12-03T05:36:31.974Z,100940.69
2022-12-03T05:38:59.208Z,100931.16
2022-12-03T05:41:45.299Z,100948.88
2022-12-03T05:44:16.200Z,100928.03
2022-12-03T05:46:47.640Z,100943.25
2022-12-03T05:49:14.870Z,100940.00
2022-12-03T05:51:43.384Z,100933.78
2022-12-03T05:54:10.895Z,100937.94
2022-12-03T05:56:38.143Z,100943.72
2022-12-03T05:59:05.442Z,100940.25
2022-12-03T06:01:32.825Z,100938.13
2022-12-03T06:04:00.133Z,100942.19
2022-12-03T06:06:27.458Z,100931.34
2022-12-03T06:08:54.983Z,100932.22
2022-12-03T06:11:22.623Z,100945.72
2022-12-03T06:13:50.112Z,100945.41
2022-12-03T06:16:17.478Z,100931.59
2022-12-03T06:18:44.790Z,100934.31
2022-12-03T06:21:11.979Z,100937.78
2022-12-03T06:23:44.604Z,100933.03
2022-12-03T06:26:12.588Z,100934.78
2022-12-03T06:28:40.405Z,100936.59
2022-12-03T06:31:07.747Z,100925.50
2022-12-03T06:33:35.045Z,100935.13
2022-12-03T06:36:02.375Z,100936.75
2022-12-03T06:38:29.783Z,100941.91
2022-12-03T06:40:56.993Z,100935.13
2022-12-03T06:43:24.226Z,100943.53
2022-12-03T06:45:51.493Z,100935.13
2022-12-03T06:48:18.827Z,100942.00
2022-12-03T06:50:46.067Z,100939.34
2022-12-03T06:53:13.430Z,100938.53
2022-12-03T06:55:40.611Z,100939.38
2022-12-03T06:58:08.035Z,100944.50
2022-12-03T07:00:35.254Z,100948.59
2022-12-03T07:03:02.530Z,100947.16
2022-12-03T07:05:29.782Z,100937.78
2022-12-03T07:07:57.198Z,100938.59
2022-12-03T07:10:24.390Z,100944.69
2022-12-03T07:12:51.600Z,100937.00
2022-12-03T07:15:18.938Z,100941.44
2022-12-03T07:17:46.312Z,100934.44
2022-12-03T07:20:16.245Z,100938.78
2022-12-03T07:22:43.576Z,100937.94
2022-12-03T07:25:12.415Z,100938.53
2022-12-03T07:27:39.708Z,100937.47
2022-12-03T07:30:08.196Z,100927.16
2022-12-03T07:32:35.397Z,100930.50
2022-12-03T07:35:07.165Z,100927.75
2022-12-03T07:37:34.885Z,100934.69
2022-12-03T07:40:02.367Z,100931.81
2022-12-03T07:42:29.796Z,100925.97
2022-12-03T07:44:57.035Z,100934.69
2022-12-03T07:47:24.344Z,100936.22
2022-12-03T07:49:51.554Z,100930.59
2022-12-03T07:52:18.834Z,100931.75
2022-12-03T07:54:46.044Z,100920.28
2022-12-03T07:57:13.362Z,100911.47
2022-12-03T07:59:40.583Z,100913.44
2022-12-03T08:02:09.807Z,100920.94
2022-12-03T08:04:37.204Z,100924.38
2022-12-03T08:07:05.979Z,100921.56
2022-12-03T08:09:33.283Z,100918.19
2022-12-03T08:12:06.234Z,100926.84
2022-12-03T08:14:33.569Z,100907.81
2022-12-03T08:17:01.077Z,100919.06
2022-12-03T08:19:28.540Z,100912.06
2022-12-03T08:22:01.064Z,100920.84
2022-12-03T08:24:30.347Z,100921.47
2022-12-03T08:26:57.546Z,100914.50
2022-12-03T08:29:25.071Z,100923.69
2022-12-03T08:31:55.188Z,100921.25
2022-12-03T08:34:26.504Z,100928.09
2022-12-03T08:37:05.780Z,100918.22
2022-12-03T08:39:35.761Z,100923.03
2022-12-03T08:42:40.717Z,100914.84
2022-12-03T08:45:29.540Z,100915.25
2022-12-03T08:48:06.076Z,100915.97
2022-12-03T08:50:38.683Z,100909.16
2022-12-03T08:53:09.008Z,100907.25
2022-12-03T08:55:38.414Z,100889.56
2022-12-03T08:58:25.716Z,100889.13
2022-12-03T09:01:02.695Z,100899.84
2022-12-03T09:03:30.995Z,100889.25
2022-12-03T09:05:58.317Z,100905.31
2022-12-03T09:08:25.709Z,100890.94
2022-12-03T09:10:52.960Z,100881.19
2022-12-03T09:13:20.218Z,100892.63
2022-12-03T09:15:47.528Z,100896.59
2022-12-03T09:18:14.895Z,100892.09
2022-12-03T09:20:42.319Z,100895.47
2022-12-03T09:23:09.651Z,100889.13
2022-12-03T09:25:36.950Z,100885.41
2022-12-03T09:28:04.323Z,100884.53
2022-12-03T09:30:32.300Z,100889.53
2022-12-03T09:33:00.153Z,100886.50
2022-12-03T09:35:27.980Z,100888.91
2022-12-03T09:37:55.594Z,100879.34
2022-12-03T09:40:23.367Z,100875.03
2022-12-03T09:42:51.812Z,100878.09
2022-12-03T09:45:20.618Z,100886.78
2022-12-03T09:47:49.657Z,100874.78
2022-12-03T09:50:23.375Z,100867.34
2022-12-03T09:52:55.165Z,100858.53
2022-12-03T09:55:26.286Z,100858.44
2022-12-03T09:57:55.771Z,100858.19
2022-12-03T10:00:30.025Z,100844.19
2022-12-03T10:03:02.993Z,100837.41
2022-12-03T10:05:30.581Z,100839.13
2022-12-03T10:08:14.354Z,100819.09
2022-12-03T10:10:42.053Z,100815.66
2022-12-03T10:13:19.762Z,100819.78
2022-12-03T10:15:54.114Z,100817.94
2022-12-03T10:18:24.474Z,100817.59
2022-12-03T10:20:53.267Z,100819.19
2022-12-03T10:23:25.666Z,100810.31
2022-12-03T10:26:00.709Z,100789.44
2022-12-03T10:28:38.773Z,100809.38
2022-12-03T10:31:08.975Z,100810.94
2022-12-03T10:33:43.020Z,100806.19
2022-12-03T10:36:18.253Z,100796.91
2022-12-03T10:38:45.857Z,100804.38
2022-12-03T10:41:25.773Z,100796.22
2022-12-03T10:43:53.449Z,100804.84
2022-12-03T10:46:22.385Z,100803.13
2022-12-03T10:49:09.392Z,100794.75
2022-12-03T10:51:39.083Z,100791.75
2022-12-03T10:54:16.650Z,100785.44
2022-12-03T10:56:44.775Z,100776.97
2022-12-03T10:59:20.092Z,100781.66
2022-12-03T11:01:48.395Z,100794.88
2022-12-03T11:04:28.428Z,100795.22
2022-12-03T11:06:56.048Z,100794.31
2022-12-03T11:09:30.033Z,100805.41
2022-12-03T11:12:05.065Z,100801.59
2022-12-03T11:14:54.508Z,100798.84
2022-12-03T11:17:24.985Z,100805.75
2022-12-03T11:19:52.610Z,100796.91
2022-12-03T11:22:25.456Z,100802.94
2022-12-03T11:25:27.061Z,100799.13
2022-12-03T11:28:15.527Z,100807.97
2022-12-03T11:30:48.937Z,100808.28
2022-12-03T11:33:25.126Z,100797.22
2022-12-03T11:36:04.515Z,100788.56
2022-12-03T11:38:37.854Z,100795.47
2022-12-03T11:41:22.406Z,100795.59
2022-12-03T11:43:52.652Z,100792.97
2022-12-03T11:46:23.165Z,100784.81
2022-12-03T11:48:53.535Z,100781.16
2022-12-03T11:51:24.211Z,100784.13
2022-12-03T11:53:53.301Z,100773.00
2022-12-03T11:56:35.671Z,100768.91
2022-12-03T11:59:12.551Z,100776.97
2022-12-03T12:01:41.238Z,100759.81
2022-12-03T12:04:28.389Z,100758.09
2022-12-03T12:06:55.651Z,100760.34
2022-12-03T12:09:53.400Z,100748.09
2022-12-03T12:12:51.096Z,100746.66
2022-12-03T12:15:40.281Z,100748.81
2022-12-03T12:18:42.305Z,100746.00
2022-12-03T12:21:47.571Z,100744.63
2022-12-03T12:24:51.340Z,100740.94
2022-12-03T12:27:37.675Z,100739.09
2022-12-03T12:30:27.035Z,100745.09
2022-12-03T12:32:54.286Z,100741.22
2022-12-03T12:35:27.286Z,100753.03
2022-12-03T12:38:12.575Z,100743.16
2022-12-03T12:40:42.729Z,100744.84
2022-12-03T12:43:26.379Z,100728.88
2022-12-03T12:45:56.057Z,100744.09
2022-12-03T12:48:28.960Z,100737.97
2022-12-03T12:51:14.933Z,100740.25
2022-12-03T12:53:45.651Z,100738.34
2022-12-03T12:56:24.234Z,100736.84
2022-12-03T12:58:52.010Z,100746.41
2022-12-03T13:01:26.526Z,100744.56
2022-12-03T13:03:54.782Z,100740.41
2022-12-03T13:06:26.373Z,100741.63
2022-12-03T13:08:54.356Z,100728.69
2022-12-03T13:11:34.359Z,100720.75
2022-12-03T13:14:11.089Z,100717.63
2022-12-03T13:16:38.890Z,100715.69
2022-12-03T13:19:27.145Z,100713.00
2022-12-03T13:21:57.051Z,100709.59
2022-12-03T13:24:45.458Z,100714.16
2022-12-03T13:27:19.504Z,100705.69
2022-12-03T13:29:54.582Z,100702.97
2022-12-03T13:32:27.587Z,100717.53
2022-12-03T13:35:06.664Z,100712.47
2022-12-03T13:37:34.042Z,100714.31
2022-12-03T13:40:12.223Z,100710.34
2022-12-03T13:42:40.599Z,100716.75
2022-12-03T13:45:13.802Z,100711.03
2022-12-03T13:47:47.377Z,100714.31
2022-12-03T13:50:30.585Z,100708.31
2022-12-03T13:52:57.907Z,100713.00
2022-12-03T13:55:28.223Z,100714.53
2022-12-03T13:57:56.070Z,100711.44
2022-12-03T14:00:24.557Z,100704.06
2022-12-03T14:02:51.973Z,100701.03
2022-12-03T14:05:21.340Z,100711.38
2022-12-03T14:07:48.746Z,100711.38
2022-12-03T14:10:16.414Z,100719.63
2022-12-03T14:12:43.670Z,100715.09
2022-12-03T14:15:11.364Z,100715.09
2022-12-03T14:17:38.703Z,100712.56
2022-12-03T14:20:06.786Z,100715.56
2022-12-03T14:22:37.838Z,100710.72
2022-12-03T14:25:07.197Z,100706.63
2022-12-03T14:27:35.131Z,100719.09
2022-12-03T14:30:02.505Z,100711.63
2022-12-03T14:32:31.579Z,100717.09
2022-12-03T14:34:58.710Z,100721.72
2022-12-03T14:37:25.951Z,100707.66
2022-12-03T14:39:53.677Z,100705.25
2022-12-03T14:42:21.235Z,100716.38
2022-12-03T14:44:50.132Z,100711.44
2022-12-03T14:47:20.051Z,100707.78
2022-12-03T14:49:47.382Z,100718.31
2022-12-03T14:52:14.708Z,100718.38
2022-12-03T14:54:42.803Z,100721.28
2022-12-03T14:57:12.743Z,100720.91
2022-12-03T14:59:41.807Z,100723.97
2022-12-03T15:02:10.668Z,100720.59
2022-12-03T15:04:39.195Z,100728.59
2022-12-03T15:07:06.676Z,100727.81
2022-12-03T15:09:33.911Z,100725.63
2022-12-03T15:12:03.984Z,100734.47
2022-12-03T15:14:31.399Z,100718.97
2022-12-03T15:16:58.914Z,100718.41
2022-12-03T15:19:26.356Z,100722.22
2022-12-03T15:21:53.595Z,100725.88
2022-12-03T15:24:21.093Z,100722.25
2022-12-03T15:26:49.499Z,100721.16
2022-12-03T15:29:16.817Z,100723.75
2022-12-03T15:31:44.574Z,100718.97
2022-12-03T15:34:12.795Z,100717.31
2022-12-03T15:36:42.322Z,100728.34
2022-12-03T15:39:09.519Z,100718.22
2022-12-03T15:41:36.878Z,100726.00
2022-12-03T15:44:04.247Z,100728.59
2022-12-03T15:46:31.733Z,100736.69
2022-12-03T15:48:59.065Z,100729.91
2022-12-03T15:51:26.525Z,100737.03
2022-12-03T15:53:53.857Z,100733.81
2022-12-03T15:56:21.185Z,100744.56
2022-12-03T15:58:48.504Z,100734.28
2022-12-03T16:01:17.998Z,100736.56
2022-12-03T16:03:45.565Z,100742.72
2022-12-03T16:06:14.676Z,100745.25
2022-12-03T16:08:42.135Z,100744.81
2022-12-03T16:11:09.336Z,100744.88
2022-12-03T16:13:36.783Z,100750.03
2022-12-03T16:16:04.141Z,100743.47
2022-12-03T16:18:32.079Z,100742.78
2022-12-03T16:20:59.330Z,100746.50
2022-12-03T16:23:26.732Z,100745.97
2022-12-03T16:25:53.975Z,100740.25
2022-12-03T16:28:21.501Z,100741.81
2022-12-03T16:30:48.748Z,100748.44
2022-12-03T16:33:16.081Z,100752.19
2022-12-03T16:35:43.361Z,100751.34
2022-12-03T16:38:10.660Z,100749.91
2022-12-03T16:40:37.899Z,100749.34
2022-12-03T16:43:05.240Z,100748.66
2022-12-03T16:45:51.124Z,100758.59
2022-12-03T16:48:18.915Z,100748.44
2022-12-03T16:50:46.148Z,100752.06
2022-12-03T16:53:14.167Z,100755.69
2022-12-03T16:55:41.475Z,100759.41
2022-12-03T16:58:08.731Z,100762.00
2022-12-03T17:00:36.056Z,100766.28
2022-12-03T17:03:03.627Z,100757.19
2022-12-03T17:05:30.986Z,100765.75
2022-12-03T17:07:58.476Z,100765.06
2022-12-03T17:10:25.864Z,100761.16
2022-12-03T17:13:09.974Z,100762.19
2022-12-03T17:15:38.969Z,100761.63
2022-12-03T17:18:07.297Z,100762.53
2022-12-03T17:20:36.141Z,100771.31
2022-12-03T17:23:03.821Z,100764.66
2022-12-03T17:25:31.204Z,100776.94
2022-12-03T17:27:58.552Z,100771.00
2022-12-03T17:30:26.124Z,100766.88
2022-12-03T17:32:53.791Z,100772.06
2022-12-03T17:35:21.271Z,100767.22
2022-12-03T17:37:48.556Z,100762.09
2022-12-03T17:40:17.268Z,100749.94
2022-12-03T17:42:45.491Z,100750.06
2022-12-03T17:45:13.540Z,100749.84
2022-12-03T17:47:41.001Z,100765.09
2022-12-03T17:50:09.249Z,100747.31
2022-12-03T17:52:36.755Z,100751.53
2022-12-03T17:55:17.728Z,100758.22
2022-12-03T17:57:51.270Z,100752.69
2022-12-03T18:00:19.025Z,100753.75
2022-12-03T18:02:46.484Z,100756.50
2022-12-03T18:05:14.262Z,100752.56
2022-12-03T18:07:41.723Z,100747.38
2022-12-03T18:10:09.408Z,100751.09
2022-12-03T18:15:18.378Z,100747.84
2022-12-03T18:17:45.757Z,100756.50
2022-12-03T18:20:15.271Z,100753.31
2022-12-03T18:22:42.857Z,100744.13
2022-12-03T18:25:10.620Z,100761.91
2022-12-03T18:27:40.744Z,100755.88
2022-12-03T18:30:08.531Z,100744.88
2022-12-03T18:32:35.987Z,100752.66
2022-12-03T18:35:03.820Z,100744.97
2022-12-03T18:37:32.195Z,100744.16
2022-12-03T18:40:01.016Z,100743.16
2022-12-03T18:42:29.902Z,100738.09
2022-12-03T18:44:57.277Z,100734.69
2022-12-03T18:47:27.975Z,100739.09
2022-12-03T18:49:56.222Z,100731.44
2022-12-03T18:52:25.124Z,100734.91
2022-12-03T18:54:52.709Z,100729.84
2022-12-03T18:57:20.114Z,100729.94
2022-12-03T18:59:47.519Z,100729.94
2022-12-03T19:02:53.830Z,100732.53
2022-12-03T19:05:05.859Z,100739.56
2022-12-03T19:07:34.164Z,100730.25
2022-12-03T19:10:01.526Z,100737.03
2022-12-03T19:12:28.960Z,100734.53
2022-12-03T19:14:56.466Z,100726.53
2022-12-03T19:17:23.730Z,100724.22
2022-12-03T19:19:51.164Z,100728.47
2022-12-03T19:22:18.795Z,100722.47
2022-12-03T19:24:46.094Z,100726.00
2022-12-03T19:27:13.508Z,100732.06
2022-12-03T19:29:41.689Z,100739.63
2022-12-03T19:32:09.059Z,100741.44
2022-12-03T19:34:36.609Z,100733.72
2022-12-03T19:37:03.985Z,100738.00
2022-12-03T19:39:31.883Z,100732.88
2022-12-03T19:41:59.134Z,100728.75
2022-12-03T19:44:26.411Z,100725.28
2022-12-03T19:46:54.091Z,100727.06
2022-12-03T19:49:21.444Z,100726.16
2022-12-03T19:51:49.102Z,100721.88
2022-12-03T19:54:17.551Z,100725.38
2022-12-03T19:56:45.509Z,100721.81
2022-12-03T19:59:13.535Z,100718.50
2022-12-03T20:01:43.106Z,100725.28
2022-12-03T20:04:12.413Z,100726.94
2022-12-03T20:06:39.697Z,100727.81
2022-12-03T20:09:15.316Z,100735.31
2022-12-03T20:11:44.460Z,100729.41
2022-12-03T20:14:15.288Z,100727.69
2022-12-03T20:16:44.064Z,100731.72
2022-12-03T20:19:14.076Z,100731.06
2022-12-03T20:21:42.390Z,100725.16
2022-12-03T20:24:14.294Z,100719.88
2022-12-03T20:26:42.505Z,100726.88
2022-12-03T20:29:10.031Z,100729.94
2022-12-03T20:31:37.332Z,100725.59
2022-12-03T20:34:04.859Z,100726.25
2022-12-03T20:36:32.763Z,100721.06
2022-12-03T20:39:02.912Z,100717.47
2022-12-03T20:41:30.662Z,100720.06
2022-12-03T20:43:57.901Z,100724.13
2022-12-03T20:46:31.017Z,100713.09
2022-12-03T20:48:59.678Z,100718.94
2022-12-03T20:51:29.998Z,100715.28
2022-12-03T20:53:59.196Z,100709.50
2022-12-03T20:56:32.461Z,100695.06
2022-12-03T20:59:05.090Z,100700.34
2022-12-03T21:01:33.723Z,100684.16
2022-12-03T21:04:01.496Z,100670.75
2022-12-03T21:06:30.104Z,100676.78
2022-12-03T21:08:59.079Z,100683.94
2022-12-03T21:11:30.114Z,100670.28
2022-12-03T21:13:59.344Z,100664.69
2022-12-03T21:16:59.179Z,100674.84
2022-12-03T21:19:18.034Z,100673.03
2022-12-03T21:21:45.737Z,100676.78
2022-12-03T21:24:13.810Z,100681.75
2022-12-03T21:26:41.695Z,100681.63
2022-12-03T21:29:09.621Z,100662.50
2022-12-03T21:31:38.422Z,100664.88
2022-12-03T21:34:05.875Z,100665.91
2022-12-03T21:36:33.278Z,100669.13
2022-12-03T21:39:00.861Z,100663.09
2022-12-03T21:41:28.572Z,100660.56
2022-12-03T21:43:56.097Z,100665.50
2022-12-03T21:47:11.222Z,100653.44
2022-12-03T21:49:11.104Z,100666.19
2022-12-03T21:51:38.406Z,100659.31
2022-12-03T21:54:05.876Z,100663.56
2022-12-03T21:56:33.191Z,100653.19
2022-12-03T21:59:00.616Z,100659.94
2022-12-03T22:01:28.026Z,100659.44
2022-12-03T22:03:55.364Z,100662.69
2022-12-03T22:06:22.678Z,100666.84
2022-12-03T22:08:50.040Z,100673.47
2022-12-03T22:11:20.128Z,100677.50
2022-12-03T22:13:48.177Z,100672.09
2022-12-03T22:16:18.145Z,100675.66
2022-12-03T22:18:45.535Z,100672.09
2022-12-03T22:21:16.097Z,100673.06
2022-12-03T22:23:43.782Z,100668.16
2022-12-03T22:26:13.932Z,100663.06
2022-12-03T22:28:46.095Z,100662.16
2022-12-03T22:31:14.165Z,100657.22
2022-12-03T22:33:42.064Z,100662.66
2022-12-03T22:36:19.940Z,100672.53
2022-12-03T22:38:48.916Z,100672.69
2022-12-03T22:41:16.743Z,100678.66
2022-12-03T22:43:45.433Z,100685.31
2022-12-03T22:46:13.751Z,100687.38
2022-12-03T22:48:42.545Z,100684.91
2022-12-03T22:51:18.385Z,100680.34
2022-12-03T22:53:46.183Z,100674.38
2022-12-03T22:56:13.504Z,100680.94
2022-12-03T22:58:41.300Z,100672.25
2022-12-03T23:01:09.156Z,100671.13
2022-12-03T23:03:36.675Z,100679.25
2022-12-03T23:06:11.886Z,100671.00
2022-12-03T23:08:39.276Z,100662.28
2022-12-03T23:11:06.754Z,100664.25
2022-12-03T23:13:34.074Z,100659.44
2022-12-03T23:16:01.514Z,100641.75
2022-12-03T23:18:28.770Z,100636.53
2022-12-03T23:20:57.540Z,100633.44
2022-12-03T23:23:26.562Z,100621.06
2022-12-03T23:26:03.387Z,100616.66
2022-12-03T23:28:32.944Z,100610.66
2022-12-03T23:31:00.795Z,100603.81
2022-12-03T23:33:28.806Z,100597.88
2022-12-03T23:35:56.268Z,100600.41
2022-12-03T23:38:23.596Z,100590.16
2022-12-03T23:40:52.941Z,100610.53
2022-12-03T23:43:20.097Z,100613.41
2022-12-03T23:45:47.390Z,100600.03
2022-12-03T23:48:14.670Z,100605.22
2022-12-03T23:50:41.951Z,100599.56
2022-12-03T23:53:09.238Z,100595.06
2022-12-03T23:55:39.687Z,100586.50
2022-12-03T23:58:07.242Z,100585.94
